createdAt,value
2022-10-07T00:00:16.267Z,1024.55
2022-10-07T00:01:16.336Z,1024.59
2022-10-07T00:02:16.310Z,1024.54
2022-10-07T00:03:16.276Z,1024.55
2022-10-07T00:04:16.264Z,1024.56
2022-10-07T00:05:16.259Z,1024.57
2022-10-07T00:06:16.275Z,1024.61
2022-10-07T00:07:16.271Z,1024.56
2022-10-07T00:08:16.294Z,1024.54
2022-10-07T00:09:16.264Z,1024.53
2022-10-07T00:10:16.253Z,1024.63
2022-10-07T00:11:16.254Z,1024.55
2022-10-07T00:12:16.252Z,1024.57
2022-10-07T00:13:16.253Z,1024.53
2022-10-07T00:14:16.273Z,1024.55
2022-10-07T00:15:16.262Z,1024.55
2022-10-07T00:16:16.296Z,1024.53
2022-10-07T00:17:16.266Z,1024.56
2022-10-07T00:18:16.259Z,1024.58
2022-10-07T00:19:16.264Z,1024.56
2022-10-07T00:20:16.256Z,1024.56
2022-10-07T00:21:16.254Z,1024.54
2022-10-07T00:22:16.250Z,1024.57
2022-10-07T00:23:16.249Z,1024.52
2022-10-07T00:24:16.263Z,1024.52
2022-10-07T00:25:16.249Z,1024.50
2022-10-07T00:26:16.243Z,1024.52
2022-10-07T00:27:16.249Z,1024.57
2022-10-07T00:28:16.297Z,1024.51
2022-10-07T00:29:16.248Z,1024.53
2022-10-07T00:30:16.255Z,1024.49
2022-10-07T00:31:16.293Z,1024.49
2022-10-07T00:32:16.231Z,1024.46
2022-10-07T00:33:16.239Z,1024.51
2022-10-07T00:34:16.237Z,1024.50
2022-10-07T00:35:16.238Z,1024.51
2022-10-07T00:36:16.226Z,1024.50
2022-10-07T00:37:16.223Z,1024.47
2022-10-07T00:38:16.218Z,1024.44
2022-10-07T00:39:16.229Z,1024.43
2022-10-07T00:40:16.240Z,1024.43
2022-10-07T00:41:16.226Z,1024.44
2022-10-07T00:42:16.237Z,1024.43
2022-10-07T00:43:16.222Z,1024.44
2022-10-07T00:44:16.210Z,1024.42
2022-10-07T00:45:16.225Z,1024.43
2022-10-07T00:46:16.435Z,1024.45
2022-10-07T00:47:16.222Z,1024.43
2022-10-07T00:48:16.225Z,1024.42
2022-10-07T00:49:16.203Z,1024.41
2022-10-07T00:50:16.225Z,1024.34
2022-10-07T00:51:16.212Z,1024.30
2022-10-07T00:52:16.202Z,1024.32
2022-10-07T00:53:16.202Z,1024.25
2022-10-07T00:54:16.199Z,1024.32
2022-10-07T00:55:16.206Z,1024.28
2022-10-07T00:56:16.216Z,1024.31
2022-10-07T00:57:16.209Z,1024.31
2022-10-07T00:58:16.197Z,1024.23
2022-10-07T00:59:16.206Z,1024.25
2022-10-07T01:00:16.202Z,1024.23
2022-10-07T01:01:16.261Z,1024.23
2022-10-07T01:02:16.293Z,1024.25
2022-10-07T01:03:16.197Z,1024.27
2022-10-07T01:04:16.201Z,1024.25
2022-10-07T01:05:16.192Z,1024.26
2022-10-07T01:06:16.197Z,1024.17
2022-10-07T01:07:16.198Z,1024.21
2022-10-07T01:08:16.194Z,1024.24
2022-10-07T01:09:16.185Z,1024.19
2022-10-07T01:10:16.196Z,1024.18
2022-10-07T01:11:16.195Z,1024.17
2022-10-07T01:12:16.187Z,1024.12
2022-10-07T01:13:16.200Z,1024.14
2022-10-07T01:14:16.185Z,1024.10
2022-10-07T01:15:16.186Z,1024.08
2022-10-07T01:16:16.244Z,1024.08
2022-10-07T01:17:16.169Z,1024.11
2022-10-07T01:18:16.176Z,1024.05
2022-10-07T01:19:16.193Z,1024.04
2022-10-07T01:20:16.168Z,1024.02
2022-10-07T01:21:16.165Z,1024.01
2022-10-07T01:22:16.181Z,1024.03
2022-10-07T01:23:16.163Z,1023.99
2022-10-07T01:24:16.201Z,1023.98
2022-10-07T01:25:16.163Z,1023.95
2022-10-07T01:26:16.173Z,1023.92
2022-10-07T01:27:16.163Z,1023.91
2022-10-07T01:28:16.173Z,1023.86
2022-10-07T01:29:16.169Z,1023.83
2022-10-07T01:30:16.164Z,1023.88
2022-10-07T01:31:16.204Z,1023.88
2022-10-07T01:32:16.193Z,1023.90
2022-10-07T01:33:16.152Z,1023.88
2022-10-07T01:34:16.157Z,1023.89
2022-10-07T01:35:16.177Z,1023.81
2022-10-07T01:36:16.148Z,1023.84
2022-10-07T01:37:16.163Z,1023.79
2022-10-07T01:38:16.158Z,1023.82
2022-10-07T01:39:16.162Z,1023.79
2022-10-07T01:40:16.166Z,1023.80
2022-10-07T01:41:16.160Z,1023.79
2022-10-07T01:42:16.153Z,1023.76
2022-10-07T01:43:16.141Z,1023.78
2022-10-07T01:44:16.142Z,1023.74
2022-10-07T01:45:16.149Z,1023.74
2022-10-07T01:46:16.232Z,1023.74
2022-10-07T01:47:16.138Z,1023.79
2022-10-07T01:48:16.133Z,1023.78
2022-10-07T01:49:16.142Z,1023.78
2022-10-07T01:50:16.129Z,1023.74
2022-10-07T01:51:16.138Z,1023.72
2022-10-07T01:52:16.153Z,1023.70
2022-10-07T01:53:16.136Z,1023.67
2022-10-07T01:54:16.125Z,1023.69
2022-10-07T01:55:16.123Z,1023.68
2022-10-07T01:56:16.134Z,1023.68
2022-10-07T01:57:16.127Z,1023.64
2022-10-07T01:58:16.132Z,1023.68
2022-10-07T01:59:16.132Z,1023.64
2022-10-07T02:00:16.132Z,1023.67
2022-10-07T02:01:16.166Z,1023.55
2022-10-07T02:02:16.143Z,1023.54
2022-10-07T02:03:16.159Z,1023.53
2022-10-07T02:04:16.119Z,1023.51
2022-10-07T02:05:16.124Z,1023.52
2022-10-07T02:06:16.120Z,1023.48
2022-10-07T02:07:16.108Z,1023.57
2022-10-07T02:08:16.137Z,1023.54
2022-10-07T02:09:16.105Z,1023.54
2022-10-07T02:10:16.108Z,1023.50
2022-10-07T02:11:16.108Z,1023.47
2022-10-07T02:12:16.111Z,1023.45
2022-10-07T02:13:16.112Z,1023.47
2022-10-07T02:14:16.109Z,1023.51
2022-10-07T02:15:16.113Z,1023.53
2022-10-07T02:16:16.185Z,1023.50
2022-10-07T02:17:16.107Z,1023.51
2022-10-07T02:18:16.095Z,1023.51
2022-10-07T02:19:16.126Z,1023.45
2022-10-07T02:20:16.089Z,1023.52
2022-10-07T02:21:16.102Z,1023.45
2022-10-07T02:22:16.089Z,1023.45
2022-10-07T02:23:16.087Z,1023.45
2022-10-07T02:24:16.087Z,1023.47
2022-10-07T02:25:16.122Z,1023.39
2022-10-07T02:26:16.085Z,1023.42
2022-10-07T02:27:16.094Z,1023.41
2022-10-07T02:28:16.113Z,1023.44
2022-10-07T02:29:16.105Z,1023.38
2022-10-07T02:30:16.076Z,1023.36
2022-10-07T02:31:16.126Z,1023.38
2022-10-07T02:32:16.072Z,1023.36
2022-10-07T02:33:16.089Z,1023.36
2022-10-07T02:34:19.724Z,1023.37
2022-10-07T02:35:16.085Z,1023.35
2022-10-07T02:36:16.070Z,1023.35
2022-10-07T02:37:16.080Z,1023.35
2022-10-07T02:38:16.106Z,1023.32
2022-10-07T02:39:16.066Z,1023.29
2022-10-07T02:40:16.075Z,1023.31
2022-10-07T02:41:16.065Z,1023.28
2022-10-07T02:42:16.080Z,1023.23
2022-10-07T02:43:16.071Z,1023.22
2022-10-07T02:44:16.062Z,1023.20
2022-10-07T02:45:16.068Z,1023.18
2022-10-07T02:46:16.153Z,1023.18
2022-10-07T02:47:16.081Z,1023.18
2022-10-07T02:48:16.059Z,1023.14
2022-10-07T02:49:16.052Z,1023.10
2022-10-07T02:50:16.047Z,1023.07
2022-10-07T02:51:20.616Z,1023.11
2022-10-07T02:52:16.056Z,1023.09
2022-10-07T02:53:16.054Z,1023.06
2022-10-07T02:54:16.050Z,1023.07
2022-10-07T02:55:16.053Z,1023.03
2022-10-07T02:56:16.040Z,1023.06
2022-10-07T02:57:16.059Z,1023.08
2022-10-07T02:58:16.050Z,1023.10
2022-10-07T02:59:16.043Z,1023.07
2022-10-07T03:00:16.044Z,1023.07
2022-10-07T03:01:16.089Z,1023.05
2022-10-07T03:02:16.046Z,1023.07
2022-10-07T03:03:16.100Z,1023.09
2022-10-07T03:04:16.031Z,1023.08
2022-10-07T03:05:16.047Z,1023.06
2022-10-07T03:06:16.037Z,1023.06
2022-10-07T03:07:16.039Z,1023.03
2022-10-07T03:08:16.046Z,1023.04
2022-10-07T03:09:16.033Z,1023.06
2022-10-07T03:10:16.029Z,1023.01
2022-10-07T03:11:16.017Z,1023.01
2022-10-07T03:12:16.027Z,1022.94
2022-10-07T03:13:16.023Z,1022.95
2022-10-07T03:14:16.040Z,1022.93
2022-10-07T03:15:16.017Z,1022.92
2022-10-07T03:16:16.067Z,1022.93
2022-10-07T03:17:16.016Z,1022.90
2022-10-07T03:18:16.020Z,1022.86
2022-10-07T03:19:16.017Z,1022.91
2022-10-07T03:20:16.009Z,1022.89
2022-10-07T03:21:16.017Z,1022.84
2022-10-07T03:22:16.011Z,1022.85
2022-10-07T03:23:16.007Z,1022.80
2022-10-07T03:24:16.017Z,1022.82
2022-10-07T03:25:15.992Z,1022.85
2022-10-07T03:26:16.009Z,1022.82
2022-10-07T03:27:15.993Z,1022.83
2022-10-07T03:28:16.064Z,1022.87
2022-10-07T03:29:15.999Z,1022.87
2022-10-07T03:30:16.003Z,1022.89
2022-10-07T03:31:16.031Z,1022.88
2022-10-07T03:32:15.988Z,1022.88
2022-10-07T03:33:15.991Z,1022.87
2022-10-07T03:34:15.996Z,1022.83
2022-10-07T03:35:16.004Z,1022.83
2022-10-07T03:36:15.982Z,1022.83
2022-10-07T03:37:15.975Z,1022.86
2022-10-07T03:38:15.976Z,1022.81
2022-10-07T03:39:15.986Z,1022.86
2022-10-07T03:40:15.991Z,1022.81
2022-10-07T03:41:15.969Z,1022.84
2022-10-07T03:42:15.987Z,1022.82
2022-10-07T03:43:15.981Z,1022.83
2022-10-07T03:44:15.972Z,1022.82
2022-10-07T03:45:15.998Z,1022.79
2022-10-07T03:46:16.028Z,1022.77
2022-10-07T03:47:15.985Z,1022.74
2022-10-07T03:48:15.972Z,1022.74
2022-10-07T03:49:15.958Z,1022.71
2022-10-07T03:50:16.016Z,1022.70
2022-10-07T03:51:15.968Z,1022.71
2022-10-07T03:52:15.968Z,1022.69
2022-10-07T03:53:15.975Z,1022.66
2022-10-07T03:54:15.954Z,1022.70
2022-10-07T03:55:15.957Z,1022.69
2022-10-07T03:56:15.973Z,1022.68
2022-10-07T03:57:15.963Z,1022.71
2022-10-07T03:58:15.959Z,1022.67
2022-10-07T03:59:15.947Z,1022.63
2022-10-07T04:00:15.943Z,1022.60
2022-10-07T04:01:15.963Z,1022.62
2022-10-07T04:02:15.942Z,1022.62
2022-10-07T04:03:15.981Z,1022.61
2022-10-07T04:04:15.978Z,1022.60
2022-10-07T04:05:15.945Z,1022.58
2022-10-07T04:06:15.958Z,1022.57
2022-10-07T04:07:15.945Z,1022.59
2022-10-07T04:08:15.938Z,1022.57
2022-10-07T04:09:15.929Z,1022.57
2022-10-07T04:10:15.949Z,1022.57
2022-10-07T04:11:15.931Z,1022.56
2022-10-07T04:12:15.924Z,1022.59
2022-10-07T04:13:15.934Z,1022.57
2022-10-07T04:14:15.928Z,1022.58
2022-10-07T04:15:15.938Z,1022.60
2022-10-07T04:16:15.954Z,1022.55
2022-10-07T04:17:15.928Z,1022.59
2022-10-07T04:18:15.930Z,1022.58
2022-10-07T04:19:15.927Z,1022.57
2022-10-07T04:20:15.944Z,1022.57
2022-10-07T04:21:15.924Z,1022.56
2022-10-07T04:22:15.911Z,1022.59
2022-10-07T04:23:15.915Z,1022.57
2022-10-07T04:24:15.938Z,1022.52
2022-10-07T04:25:15.913Z,1022.50
2022-10-07T04:26:15.905Z,1022.53
2022-10-07T04:27:33.861Z,1022.53
2022-10-07T04:28:15.969Z,1022.52
2022-10-07T04:29:15.909Z,1022.47
2022-10-07T04:30:15.960Z,1022.51
2022-10-07T04:31:15.975Z,1022.43
2022-10-07T04:32:15.891Z,1022.45
2022-10-07T04:33:15.892Z,1022.45
2022-10-07T04:34:15.897Z,1022.47
2022-10-07T04:35:15.897Z,1022.46
2022-10-07T04:36:15.888Z,1022.46
2022-10-07T04:37:15.904Z,1022.42
2022-10-07T04:38:15.908Z,1022.47
2022-10-07T04:39:15.881Z,1022.42
2022-10-07T04:40:15.883Z,1022.44
2022-10-07T04:41:15.875Z,1022.41
2022-10-07T04:42:15.888Z,1022.41
2022-10-07T04:43:15.873Z,1022.40
2022-10-07T04:44:15.891Z,1022.40
2022-10-07T04:45:15.883Z,1022.45
2022-10-07T04:46:15.962Z,1022.38
2022-10-07T04:47:15.936Z,1022.35
2022-10-07T04:48:15.879Z,1022.36
2022-10-07T04:49:15.873Z,1022.30
2022-10-07T04:50:15.886Z,1022.28
2022-10-07T04:51:15.881Z,1022.27
2022-10-07T04:52:15.862Z,1022.24
2022-10-07T04:53:15.877Z,1022.26
2022-10-07T04:54:15.880Z,1022.29
2022-10-07T04:55:15.881Z,1022.26
2022-10-07T04:56:15.862Z,1022.27
2022-10-07T04:57:15.857Z,1022.26
2022-10-07T04:58:15.852Z,1022.22
2022-10-07T04:59:15.850Z,1022.21
2022-10-07T05:00:15.851Z,1022.22
2022-10-07T05:01:15.897Z,1022.22
2022-10-07T05:02:15.923Z,1022.24
2022-10-07T05:03:15.858Z,1022.20
2022-10-07T05:04:15.851Z,1022.20
2022-10-07T05:05:15.856Z,1022.18
2022-10-07T05:06:15.836Z,1022.18
2022-10-07T05:07:15.844Z,1022.17
2022-10-07T05:08:15.841Z,1022.15
2022-10-07T05:09:15.833Z,1022.15
2022-10-07T05:10:15.841Z,1022.16
2022-10-07T05:11:15.831Z,1022.09
2022-10-07T05:12:15.836Z,1022.14
2022-10-07T05:13:15.861Z,1022.14
2022-10-07T05:14:15.836Z,1022.11
2022-10-07T05:15:15.820Z,1022.11
2022-10-07T05:16:15.931Z,1022.10
2022-10-07T05:17:15.839Z,1022.13
2022-10-07T05:18:15.816Z,1022.11
2022-10-07T05:19:15.816Z,1022.09
2022-10-07T05:20:15.813Z,1022.06
2022-10-07T05:21:15.819Z,1022.06
2022-10-07T05:22:15.826Z,1022.05
2022-10-07T05:23:15.823Z,1022.09
2022-10-07T05:24:15.815Z,1022.07
2022-10-07T05:25:15.811Z,1022.07
2022-10-07T05:26:15.819Z,1022.03
2022-10-07T05:27:15.808Z,1022.04
2022-10-07T05:28:15.854Z,1021.98
2022-10-07T05:29:15.812Z,1022.01
2022-10-07T05:30:15.802Z,1021.99
2022-10-07T05:31:15.820Z,1021.98
2022-10-07T05:32:15.793Z,1021.94
2022-10-07T05:33:15.806Z,1021.93
2022-10-07T05:34:15.800Z,1021.98
2022-10-07T05:35:15.809Z,1021.92
2022-10-07T05:36:15.812Z,1021.94
2022-10-07T05:37:15.795Z,1021.91
2022-10-07T05:38:15.793Z,1021.91
2022-10-07T05:39:15.786Z,1021.91
2022-10-07T05:40:15.793Z,1021.88
2022-10-07T05:41:15.783Z,1021.90
2022-10-07T05:42:15.783Z,1021.85
2022-10-07T05:43:15.773Z,1021.82
2022-10-07T05:44:15.783Z,1021.83
2022-10-07T05:45:15.785Z,1021.84
2022-10-07T05:46:15.819Z,1021.83
2022-10-07T05:47:15.764Z,1021.81
2022-10-07T05:48:15.778Z,1021.80
2022-10-07T05:49:15.788Z,1021.88
2022-10-07T05:50:15.819Z,1021.83
2022-10-07T05:51:15.780Z,1021.83
2022-10-07T05:52:15.772Z,1021.83
2022-10-07T05:53:15.761Z,1021.81
2022-10-07T05:54:15.775Z,1021.84
2022-10-07T05:55:15.785Z,1021.86
2022-10-07T05:56:15.784Z,1021.82
2022-10-07T05:57:15.741Z,1021.84
2022-10-07T05:58:15.752Z,1021.84
2022-10-07T05:59:15.752Z,1021.83
2022-10-07T06:00:15.766Z,1021.87
2022-10-07T06:01:15.771Z,1021.88
2022-10-07T06:02:15.955Z,1021.86
2022-10-07T06:03:15.840Z,1021.87
2022-10-07T06:04:15.747Z,1021.85
2022-10-07T06:05:15.739Z,1021.90
2022-10-07T06:06:15.750Z,1021.84
2022-10-07T06:07:20.186Z,1021.89
2022-10-07T06:08:15.733Z,1021.85
2022-10-07T06:09:15.746Z,1021.93
2022-10-07T06:10:15.715Z,1021.93
2022-10-07T06:11:15.718Z,1021.91
2022-10-07T06:12:15.742Z,1021.89
2022-10-07T06:13:15.723Z,1021.89
2022-10-07T06:14:15.715Z,1021.93
2022-10-07T06:15:15.723Z,1021.95
2022-10-07T06:16:15.734Z,1021.90
2022-10-07T06:17:15.748Z,1021.95
2022-10-07T06:18:15.719Z,1021.91
2022-10-07T06:19:15.702Z,1021.88
2022-10-07T06:20:15.697Z,1021.91
2022-10-07T06:21:15.709Z,1021.88
2022-10-07T06:22:15.718Z,1021.89
2022-10-07T06:23:15.721Z,1021.85
2022-10-07T06:24:15.694Z,1021.84
2022-10-07T06:25:15.703Z,1021.84
2022-10-07T06:26:15.684Z,1021.82
2022-10-07T06:27:15.700Z,1021.82
2022-10-07T06:28:15.747Z,1021.82
2022-10-07T06:29:15.687Z,1021.77
2022-10-07T06:30:15.683Z,1021.83
2022-10-07T06:31:15.739Z,1021.74
2022-10-07T06:32:15.685Z,1021.78
2022-10-07T06:33:15.679Z,1021.74
2022-10-07T06:34:15.672Z,1021.71
2022-10-07T06:35:15.688Z,1021.72
2022-10-07T06:36:15.686Z,1021.74
2022-10-07T06:37:15.692Z,1021.77
2022-10-07T06:38:15.692Z,1021.74
2022-10-07T06:39:15.695Z,1021.77
2022-10-07T06:40:15.682Z,1021.74
2022-10-07T06:41:15.664Z,1021.76
2022-10-07T06:42:15.675Z,1021.76
2022-10-07T06:43:15.677Z,1021.78
2022-10-07T06:44:15.668Z,1021.77
2022-10-07T06:45:15.684Z,1021.75
2022-10-07T06:46:15.722Z,1021.79
2022-10-07T06:47:15.658Z,1021.75
2022-10-07T06:48:15.656Z,1021.79
2022-10-07T06:49:15.650Z,1021.81
2022-10-07T06:50:15.676Z,1021.76
2022-10-07T06:51:15.648Z,1021.78
2022-10-07T06:52:15.689Z,1021.83
2022-10-07T06:53:15.658Z,1021.83
2022-10-07T06:54:15.665Z,1021.87
2022-10-07T06:55:15.677Z,1021.86
2022-10-07T06:56:15.660Z,1021.85
2022-10-07T06:57:40.500Z,1021.79
2022-10-07T06:58:15.645Z,1021.87
2022-10-07T06:59:15.632Z,1021.84
2022-10-07T07:00:15.644Z,1021.87
2022-10-07T07:01:15.661Z,1021.88
2022-10-07T07:02:15.674Z,1021.88
2022-10-07T07:03:15.626Z,1021.90
2022-10-07T07:04:15.644Z,1021.91
2022-10-07T07:05:15.639Z,1021.91
2022-10-07T07:06:15.624Z,1021.88
2022-10-07T07:07:15.631Z,1021.93
2022-10-07T07:08:15.635Z,1021.97
2022-10-07T07:09:15.629Z,1021.96
2022-10-07T07:10:15.618Z,1021.92
2022-10-07T07:11:15.637Z,1021.93
2022-10-07T07:12:15.627Z,1021.99
2022-10-07T07:13:16.603Z,1021.99
2022-10-07T07:14:15.626Z,1022.01
2022-10-07T07:15:15.616Z,1022.03
2022-10-07T07:16:15.659Z,1022.03
2022-10-07T07:17:15.649Z,1022.01
2022-10-07T07:18:15.613Z,1022.00
2022-10-07T07:19:15.622Z,1022.01
2022-10-07T07:20:15.630Z,1021.98
2022-10-07T07:21:15.626Z,1021.97
2022-10-07T07:22:15.650Z,1021.95
2022-10-07T07:23:15.620Z,1021.97
2022-10-07T07:24:15.627Z,1021.89
2022-10-07T07:25:15.615Z,1021.92
2022-10-07T07:26:15.634Z,1021.90
2022-10-07T07:27:15.622Z,1021.88
2022-10-07T07:28:15.752Z,1021.88
2022-10-07T07:29:15.629Z,1021.93
2022-10-07T07:30:15.636Z,1021.87
2022-10-07T07:31:15.668Z,1021.86
2022-10-07T07:32:15.622Z,1021.85
2022-10-07T07:33:15.622Z,1021.90
2022-10-07T07:34:15.651Z,1021.89
2022-10-07T07:35:15.620Z,1021.89
2022-10-07T07:36:15.633Z,1021.87
2022-10-07T07:37:15.620Z,1021.82
2022-10-07T07:38:15.626Z,1021.86
2022-10-07T07:39:15.646Z,1021.84
2022-10-07T07:40:15.628Z,1021.86
2022-10-07T07:41:15.631Z,1021.85
2022-10-07T07:42:15.725Z,1021.85
2022-10-07T07:43:15.627Z,1021.88
2022-10-07T07:44:15.632Z,1021.89
2022-10-07T07:45:15.650Z,1021.80
2022-10-07T07:46:15.686Z,1021.79
2022-10-07T07:47:15.629Z,1021.79
2022-10-07T07:48:15.635Z,1021.73
2022-10-07T07:49:15.645Z,1021.66
2022-10-07T07:50:15.648Z,1021.72
2022-10-07T07:51:15.653Z,1021.74
2022-10-07T07:52:15.639Z,1021.74
2022-10-07T07:53:15.640Z,1021.76
2022-10-07T07:54:15.654Z,1021.76
2022-10-07T07:55:15.679Z,1021.72
2022-10-07T07:56:15.658Z,1021.81
2022-10-07T07:57:15.642Z,1021.75
2022-10-07T07:58:15.658Z,1021.72
2022-10-07T07:59:15.658Z,1021.76
2022-10-07T08:00:15.677Z,1021.75
2022-10-07T08:01:15.775Z,1021.76
2022-10-07T08:02:15.699Z,1021.77
2022-10-07T08:03:15.677Z,1021.76
2022-10-07T08:04:15.662Z,1021.71
2022-10-07T08:05:18.981Z,1021.74
2022-10-07T08:06:15.671Z,1021.73
2022-10-07T08:07:15.676Z,1021.71
2022-10-07T08:08:15.688Z,1021.75
2022-10-07T08:09:15.690Z,1021.74
2022-10-07T08:10:15.685Z,1021.68
2022-10-07T08:11:15.683Z,1021.71
2022-10-07T08:12:15.690Z,1021.69
2022-10-07T08:13:15.688Z,1021.68
2022-10-07T08:14:15.697Z,1021.68
2022-10-07T08:15:15.696Z,1021.68
2022-10-07T08:16:15.761Z,1021.68
2022-10-07T08:17:15.712Z,1021.72
2022-10-07T08:18:15.707Z,1021.71
2022-10-07T08:19:15.709Z,1021.71
2022-10-07T08:20:15.702Z,1021.69
2022-10-07T08:21:15.712Z,1021.69
2022-10-07T08:22:15.729Z,1021.71
2022-10-07T08:23:15.729Z,1021.63
2022-10-07T08:24:15.731Z,1021.68
2022-10-07T08:25:15.715Z,1021.71
2022-10-07T08:26:15.720Z,1021.66
2022-10-07T08:27:15.737Z,1021.65
2022-10-07T08:28:15.768Z,1021.62
2022-10-07T08:29:15.749Z,1021.66
2022-10-07T08:30:15.808Z,1021.61
2022-10-07T08:31:15.771Z,1021.67
2022-10-07T08:32:15.745Z,1021.60
2022-10-07T08:33:15.744Z,1021.61
2022-10-07T08:34:15.782Z,1021.57
2022-10-07T08:35:15.753Z,1021.59
2022-10-07T08:36:15.760Z,1021.57
2022-10-07T08:37:15.774Z,1021.61
2022-10-07T08:38:15.773Z,1021.58
2022-10-07T08:39:15.796Z,1021.55
2022-10-07T08:40:15.803Z,1021.56
2022-10-07T08:41:15.792Z,1021.52
2022-10-07T08:42:15.788Z,1021.57
2022-10-07T08:43:15.805Z,1021.54
2022-10-07T08:44:16.895Z,1021.56
2022-10-07T08:45:15.806Z,1021.52
2022-10-07T08:46:15.875Z,1021.52
2022-10-07T08:47:15.814Z,1021.55
2022-10-07T08:48:15.833Z,1021.56
2022-10-07T08:49:15.828Z,1021.54
2022-10-07T08:50:19.532Z,1021.53
2022-10-07T08:51:15.859Z,1021.53
2022-10-07T08:52:15.850Z,1021.56
2022-10-07T08:53:15.862Z,1021.54
2022-10-07T08:54:15.875Z,1021.52
2022-10-07T08:55:15.879Z,1021.55
2022-10-07T08:56:15.890Z,1021.54
2022-10-07T08:57:15.892Z,1021.55
2022-10-07T08:58:15.902Z,1021.60
2022-10-07T08:59:15.893Z,1021.62
2022-10-07T09:00:15.911Z,1021.61
2022-10-07T09:01:16.028Z,1021.65
2022-10-07T09:02:16.048Z,1021.63
2022-10-07T09:03:15.921Z,1021.63
2022-10-07T09:04:15.943Z,1021.64
2022-10-07T09:05:15.948Z,1021.58
2022-10-07T09:06:15.971Z,1021.56
2022-10-07T09:07:15.949Z,1021.49
2022-10-07T09:08:15.959Z,1021.54
2022-10-07T09:09:15.971Z,1021.43
2022-10-07T09:10:15.974Z,1021.37
2022-10-07T09:11:16.131Z,1021.38
2022-10-07T09:12:15.986Z,1021.38
2022-10-07T09:13:16.011Z,1021.33
2022-10-07T09:14:16.000Z,1021.35
2022-10-07T09:15:16.008Z,1021.31
2022-10-07T09:16:16.099Z,1021.28
2022-10-07T09:17:16.035Z,1021.28
2022-10-07T09:18:16.053Z,1021.27
2022-10-07T09:19:16.060Z,1021.24
2022-10-07T09:20:16.053Z,1021.26
2022-10-07T09:21:16.101Z,1021.21
2022-10-07T09:22:16.070Z,1021.26
2022-10-07T09:23:16.104Z,1021.22
2022-10-07T09:24:16.095Z,1021.22
2022-10-07T09:25:16.119Z,1021.14
2022-10-07T09:26:16.106Z,1020.96
2022-10-07T09:27:16.128Z,1020.92
2022-10-07T09:28:16.168Z,1020.87
2022-10-07T09:29:16.134Z,1020.89
2022-10-07T09:30:16.176Z,1020.87
2022-10-07T09:31:16.251Z,1020.90
2022-10-07T09:32:16.190Z,1020.92
2022-10-07T09:33:16.193Z,1020.89
2022-10-07T09:34:16.198Z,1020.85
2022-10-07T09:35:16.215Z,1020.79
2022-10-07T09:36:16.220Z,1020.83
2022-10-07T09:37:16.214Z,1020.77
2022-10-07T09:38:16.222Z,1020.76
2022-10-07T09:39:16.239Z,1020.80
2022-10-07T09:40:16.250Z,1020.83
2022-10-07T09:41:16.274Z,1020.79
2022-10-07T09:42:16.246Z,1020.74
2022-10-07T09:43:16.270Z,1020.67
2022-10-07T09:44:16.278Z,1020.75
2022-10-07T09:45:16.281Z,1020.71
2022-10-07T09:46:16.338Z,1020.66
2022-10-07T09:47:16.291Z,1020.62
2022-10-07T09:48:16.302Z,1020.59
2022-10-07T09:49:18.177Z,1020.56
2022-10-07T09:50:24.704Z,1020.58
2022-10-07T09:51:16.335Z,1020.54
2022-10-07T09:52:16.337Z,1020.46
2022-10-07T09:53:16.365Z,1020.48
2022-10-07T09:54:16.347Z,1020.45
2022-10-07T09:55:16.351Z,1020.48
2022-10-07T09:56:16.366Z,1020.42
2022-10-07T09:57:18.920Z,1020.43
2022-10-07T09:58:16.388Z,1020.42
2022-10-07T09:59:17.229Z,1020.42
2022-10-07T10:00:16.386Z,1020.45
2022-10-07T10:01:16.385Z,1020.40
2022-10-07T10:02:16.442Z,1020.42
2022-10-07T10:03:16.447Z,1020.41
2022-10-07T10:04:16.426Z,1020.47
2022-10-07T10:05:16.411Z,1020.44
2022-10-07T10:06:16.428Z,1020.45
2022-10-07T10:07:16.431Z,1020.53
2022-10-07T10:08:16.430Z,1020.58
2022-10-07T10:09:20.121Z,1020.59
2022-10-07T10:10:16.446Z,1020.62
2022-10-07T10:11:16.454Z,1020.60
2022-10-07T10:12:16.466Z,1020.55
2022-10-07T10:13:16.467Z,1020.49
2022-10-07T10:14:16.479Z,1020.48
2022-10-07T10:15:16.484Z,1020.49
2022-10-07T10:16:16.566Z,1020.49
2022-10-07T10:17:16.535Z,1020.63
2022-10-07T10:18:16.499Z,1020.55
2022-10-07T10:19:16.506Z,1020.57
2022-10-07T10:20:16.493Z,1020.56
2022-10-07T10:21:16.511Z,1020.54
2022-10-07T10:22:16.537Z,1020.51
2022-10-07T10:23:16.537Z,1020.50
2022-10-07T10:24:17.227Z,1020.48
2022-10-07T10:25:16.555Z,1020.52
2022-10-07T10:26:16.566Z,1020.46
2022-10-07T10:27:16.567Z,1020.44
2022-10-07T10:28:16.650Z,1020.39
2022-10-07T10:29:16.583Z,1020.41
2022-10-07T10:30:16.594Z,1020.42
2022-10-07T10:31:16.661Z,1020.39
2022-10-07T10:32:16.605Z,1020.37
2022-10-07T10:33:16.611Z,1020.36
2022-10-07T10:34:16.641Z,1020.34
2022-10-07T10:35:16.621Z,1020.28
2022-10-07T10:36:16.637Z,1020.22
2022-10-07T10:37:16.650Z,1020.18
2022-10-07T10:38:16.745Z,1020.15
2022-10-07T10:39:16.663Z,1020.03
2022-10-07T10:40:16.674Z,1020.02
2022-10-07T10:41:16.695Z,1019.96
2022-10-07T10:42:16.691Z,1019.94
2022-10-07T10:43:16.686Z,1020.00
2022-10-07T10:44:16.715Z,1019.97
2022-10-07T10:45:16.727Z,1020.02
2022-10-07T10:46:16.756Z,1019.99
2022-10-07T10:47:16.723Z,1019.95
2022-10-07T10:48:16.747Z,1019.96
2022-10-07T10:49:16.754Z,1019.95
2022-10-07T10:50:16.770Z,1019.92
2022-10-07T10:51:16.768Z,1019.91
2022-10-07T10:52:16.761Z,1019.84
2022-10-07T10:53:16.788Z,1019.82
2022-10-07T10:54:16.788Z,1019.77
2022-10-07T10:55:16.845Z,1019.80
2022-10-07T10:56:16.807Z,1019.74
2022-10-07T10:57:16.813Z,1019.73
2022-10-07T10:58:16.814Z,1019.69
2022-10-07T10:59:16.826Z,1019.69
2022-10-07T11:00:16.847Z,1019.65
2022-10-07T11:01:16.837Z,1019.69
2022-10-07T11:02:16.908Z,1019.61
2022-10-07T11:03:16.875Z,1019.63
2022-10-07T11:04:16.862Z,1019.57
2022-10-07T11:05:16.904Z,1019.63
2022-10-07T11:06:16.876Z,1019.60
2022-10-07T11:07:16.890Z,1019.58
2022-10-07T11:08:16.911Z,1019.57
2022-10-07T11:09:16.903Z,1019.55
2022-10-07T11:10:16.940Z,1019.54
2022-10-07T11:11:16.933Z,1019.45
2022-10-07T11:12:16.969Z,1019.46
2022-10-07T11:13:19.680Z,1019.49
2022-10-07T11:14:16.957Z,1019.48
2022-10-07T11:15:16.954Z,1019.47
2022-10-07T11:16:17.039Z,1019.45
2022-10-07T11:17:16.994Z,1019.39
2022-10-07T11:18:17.019Z,1019.44
2022-10-07T11:19:17.013Z,1019.39
2022-10-07T11:20:17.046Z,1019.36
2022-10-07T11:21:17.034Z,1019.32
2022-10-07T11:22:17.048Z,1019.33
2022-10-07T11:23:17.035Z,1019.25
2022-10-07T11:24:17.045Z,1019.25
2022-10-07T11:25:17.057Z,1019.28
2022-10-07T11:26:17.053Z,1019.18
2022-10-07T11:27:17.061Z,1019.21
2022-10-07T11:28:17.142Z,1019.19
2022-10-07T11:29:17.082Z,1019.20
2022-10-07T11:30:17.177Z,1019.11
2022-10-07T11:31:17.185Z,1019.07
2022-10-07T11:32:17.124Z,1019.08
2022-10-07T11:33:17.141Z,1019.08
2022-10-07T11:34:17.151Z,1019.06
2022-10-07T11:35:17.125Z,1019.03
2022-10-07T11:36:17.159Z,1019.01
2022-10-07T11:37:17.178Z,1018.95
2022-10-07T11:38:17.154Z,1018.98
2022-10-07T11:39:17.185Z,1018.89
2022-10-07T11:40:17.230Z,1018.86
2022-10-07T11:41:17.177Z,1018.83
2022-10-07T11:42:17.202Z,1018.74
2022-10-07T11:43:17.236Z,1018.78
2022-10-07T11:44:17.242Z,1018.74
2022-10-07T11:45:17.215Z,1018.76
2022-10-07T11:46:17.254Z,1018.72
2022-10-07T11:47:17.241Z,1018.69
2022-10-07T11:48:17.235Z,1018.64
2022-10-07T11:49:17.244Z,1018.65
2022-10-07T11:50:17.278Z,1018.64
2022-10-07T11:51:17.255Z,1018.65
2022-10-07T11:52:17.251Z,1018.62
2022-10-07T11:53:17.258Z,1018.60
2022-10-07T11:54:17.287Z,1018.54
2022-10-07T11:55:17.269Z,1018.52
2022-10-07T11:56:17.290Z,1018.52
2022-10-07T11:57:17.291Z,1018.47
2022-10-07T11:58:17.289Z,1018.42
2022-10-07T11:59:17.310Z,1018.41
2022-10-07T12:00:17.303Z,1018.30
2022-10-07T12:01:17.304Z,1018.35
2022-10-07T12:02:17.349Z,1018.30
2022-10-07T12:03:17.376Z,1018.28
2022-10-07T12:04:17.357Z,1018.29
2022-10-07T12:05:17.366Z,1018.28